createdAt,value
2022-12-14T00:03:33.000Z,25.93
2022-12-14T00:08:41.295Z,24.87
2022-12-14T00:13:44.063Z,25.47
2022-12-14T00:18:52.838Z,25.93
2022-12-14T00:23:57.079Z,23.20
2022-12-14T00:29:01.318Z,23.73
2022-12-14T00:34:03.078Z,28.33
2022-12-14T00:39:05.096Z,25.80
2022-12-14T00:44:06.863Z,28.80
2022-12-14T00:49:09.108Z,23.33
2022-12-14T00:54:10.891Z,23.60
2022-12-14T00:59:12.600Z,24.60
2022-12-14T01:04:24.540Z,20.17
2022-12-14T01:09:26.657Z,25.97
2022-12-14T01:14:28.371Z,23.10
2022-12-14T01:19:30.233Z,25.80
2022-12-14T01:24:31.915Z,25.57
2022-12-14T01:29:33.870Z,24.00
2022-12-14T01:34:35.568Z,25.30
2022-12-14T01:39:37.211Z,22.00
2022-12-14T01:44:38.893Z,21.33
2022-12-14T01:49:55.802Z,22.63
2022-12-14T01:55:19.444Z,27.17
2022-12-14T02:00:21.229Z,19.43
2022-12-14T02:05:24.937Z,22.53
2022-12-14T02:10:29.056Z,20.60
2022-12-14T02:15:31.997Z,21.13
2022-12-14T02:21:01.459Z,21.67
2022-12-14T02:26:18.260Z,21.53
2022-12-14T02:31:37.427Z,24.90
2022-12-14T02:36:51.734Z,21.10
2022-12-14T02:42:13.780Z,18.80
2022-12-14T02:47:48.749Z,22.20
2022-12-14T02:53:18.407Z,19.87
2022-12-14T02:58:29.017Z,20.97
2022-12-14T03:03:31.031Z,19.97
2022-12-14T03:08:36.055Z,19.60
2022-12-14T03:13:53.888Z,18.20
2022-12-14T03:19:01.283Z,19.50
2022-12-14T03:24:09.982Z,21.13
2022-12-14T03:29:18.752Z,22.40
2022-12-14T03:34:28.075Z,19.77
2022-12-14T03:39:35.651Z,19.80
2022-12-14T03:44:49.442Z,20.40
2022-12-14T03:50:03.135Z,21.37
2022-12-14T03:55:17.000Z,22.87
2022-12-14T04:00:23.667Z,20.57
2022-12-14T04:05:35.085Z,18.73
2022-12-14T04:11:04.788Z,20.03
2022-12-14T04:16:36.210Z,21.67
2022-12-14T04:21:55.039Z,23.83
2022-12-14T04:27:11.081Z,18.93
2022-12-14T04:32:30.341Z,21.57
2022-12-14T04:37:35.992Z,18.53
2022-12-14T04:42:48.469Z,22.03
2022-12-14T04:48:03.657Z,14.50
2022-12-14T04:53:16.986Z,16.33
2022-12-14T04:58:28.916Z,19.67
2022-12-14T05:03:34.503Z,20.70
2022-12-14T05:09:03.958Z,20.43
2022-12-14T05:14:11.899Z,17.47
2022-12-14T05:19:15.085Z,20.40
2022-12-14T05:24:17.478Z,17.97
2022-12-14T05:29:19.389Z,20.17
2022-12-14T05:34:21.470Z,24.50
2022-12-14T05:39:23.152Z,19.33
2022-12-14T05:44:24.881Z,19.30
2022-12-14T05:49:26.542Z,22.43
2022-12-14T05:54:28.208Z,18.93
2022-12-14T05:59:30.899Z,20.33
2022-12-14T06:04:32.758Z,20.47
2022-12-14T06:09:34.497Z,19.93
2022-12-14T06:14:36.163Z,20.97
2022-12-14T06:19:37.846Z,17.97
2022-12-14T06:24:39.592Z,17.20
2022-12-14T06:29:41.329Z,20.17
2022-12-14T06:34:45.395Z,18.70
2022-12-14T06:39:52.622Z,20.97
2022-12-14T06:44:55.920Z,17.47
2022-12-14T06:49:57.704Z,17.93
2022-12-14T06:54:59.389Z,17.83
2022-12-14T07:00:01.184Z,20.83
2022-12-14T07:05:03.013Z,24.13
2022-12-14T07:10:05.908Z,17.80
2022-12-14T07:15:08.237Z,18.87
2022-12-14T07:20:10.572Z,21.40
2022-12-14T07:25:12.322Z,16.83
2022-12-14T07:30:14.505Z,20.50
2022-12-14T07:35:16.950Z,19.83
2022-12-14T07:40:18.717Z,19.27
2022-12-14T07:45:20.380Z,21.00
2022-12-14T07:50:22.069Z,19.93
2022-12-14T07:55:23.810Z,22.67
2022-12-14T08:00:25.546Z,21.07
2022-12-14T08:05:27.283Z,18.97
2022-12-14T08:10:28.961Z,24.17
2022-12-14T08:15:30.606Z,22.90
2022-12-14T08:20:32.302Z,25.03
2022-12-14T08:25:33.990Z,21.57
2022-12-14T08:30:40.388Z,24.47
2022-12-14T08:35:42.151Z,19.10
2022-12-14T08:40:43.853Z,21.47
2022-12-14T08:45:45.546Z,26.40
2022-12-14T08:50:49.885Z,26.20
2022-12-14T08:55:51.833Z,22.50
2022-12-14T09:01:32.127Z,21.57
2022-12-14T09:06:39.645Z,25.53
2022-12-14T09:11:45.574Z,27.10
2022-12-14T09:16:47.500Z,24.45
2022-12-14T09:21:49.243Z,26.65
2022-12-14T09:26:51.757Z,25.08
2022-12-14T09:31:54.898Z,27.20
2022-12-14T09:36:56.866Z,25.38
2022-12-14T09:42:19.280Z,25.13
2022-12-14T09:47:30.071Z,25.90
2022-12-14T09:52:34.508Z,26.85
2022-12-14T09:57:41.455Z,25.50
2022-12-14T10:03:06.865Z,24.52
2022-12-14T10:08:40.832Z,26.42
2022-12-14T10:14:13.213Z,25.60
2022-12-14T10:19:42.080Z,24.17
2022-12-14T10:24:48.830Z,28.55
2022-12-14T10:30:00.157Z,25.60
2022-12-14T10:35:16.639Z,28.30
2022-12-14T10:40:33.740Z,26.60
2022-12-14T10:45:52.227Z,28.15
2022-12-14T10:51:00.019Z,28.65
2022-12-14T10:56:08.926Z,26.40
2022-12-14T11:01:14.925Z,25.95
2022-12-14T11:06:19.853Z,29.80
2022-12-14T11:11:23.951Z,28.80
2022-12-14T11:16:36.696Z,31.30
2022-12-14T11:21:39.334Z,24.35
2022-12-14T11:26:42.913Z,25.00
2022-12-14T11:31:46.851Z,26.30
2022-12-14T11:36:49.793Z,28.00
2022-12-14T11:42:01.363Z,30.60
2022-12-14T11:47:08.405Z,28.75
2022-12-14T11:52:25.653Z,33.10
2022-12-14T11:57:52.920Z,26.55
2022-12-14T12:02:57.869Z,27.73
2022-12-14T12:08:02.277Z,30.58
2022-12-14T12:13:07.160Z,26.45
2022-12-14T12:18:18.215Z,25.75
2022-12-14T12:23:27.567Z,26.20
2022-12-14T12:28:34.490Z,25.25
2022-12-14T12:34:10.086Z,26.65
2022-12-14T12:39:20.164Z,21.88
2022-12-14T12:44:38.488Z,27.58
2022-12-14T12:49:40.226Z,28.02
2022-12-14T12:54:52.284Z,30.83
2022-12-14T12:59:56.917Z,26.80
2022-12-14T13:05:16.555Z,27.70
2022-12-14T13:10:32.413Z,29.48
2022-12-14T13:15:47.708Z,27.25
2022-12-14T13:20:49.746Z,30.05
2022-12-14T13:26:57.323Z,25.15
2022-12-14T13:32:22.485Z,28.40
2022-12-14T13:37:39.284Z,31.55
2022-12-14T13:43:13.246Z,29.33
2022-12-14T13:48:27.232Z,26.13
2022-12-14T13:53:34.447Z,28.65
2022-12-14T13:58:45.331Z,27.23
2022-12-14T14:03:52.325Z,29.88
2022-12-14T14:08:54.505Z,28.23
2022-12-14T14:14:34.127Z,30.80
2022-12-14T14:19:40.216Z,27.52
2022-12-14T14:24:52.142Z,27.38
2022-12-14T14:29:56.849Z,27.65
2022-12-14T14:35:00.830Z,29.70
2022-12-14T14:40:18.679Z,35.45
2022-12-14T14:45:31.485Z,29.73
2022-12-14T14:50:37.035Z,28.23
2022-12-14T14:55:54.733Z,33.22
2022-12-14T15:01:02.621Z,30.52
2022-12-14T15:06:04.742Z,30.15
2022-12-14T15:11:17.902Z,34.55
2022-12-14T15:16:40.717Z,28.25
2022-12-14T15:21:42.573Z,30.10
2022-12-14T15:26:44.352Z,32.50
2022-12-14T15:31:48.337Z,29.60
2022-12-14T15:36:51.770Z,28.83
2022-12-14T15:42:02.814Z,34.47
2022-12-14T15:47:04.595Z,31.40
2022-12-14T15:52:08.027Z,29.67
2022-12-14T15:57:19.072Z,33.20
2022-12-14T16:02:31.382Z,32.75
2022-12-14T16:07:44.974Z,36.53
2022-12-14T16:12:49.565Z,30.33
2022-12-14T16:17:59.247Z,31.13
2022-12-14T16:23:22.266Z,35.00
2022-12-14T16:28:31.332Z,33.80
2022-12-14T16:33:35.887Z,36.25
2022-12-14T16:38:54.813Z,35.13
2022-12-14T16:44:00.545Z,33.85
2022-12-14T16:49:30.314Z,32.10
2022-12-14T16:54:33.710Z,36.55
2022-12-14T16:59:38.755Z,39.22
2022-12-14T17:04:42.599Z,36.17
2022-12-14T17:09:44.282Z,30.52
2022-12-14T17:14:49.685Z,37.00
2022-12-14T17:19:52.203Z,35.63
2022-12-14T17:24:54.263Z,34.70
2022-12-14T17:29:57.066Z,36.58
2022-12-14T17:34:59.469Z,33.70
2022-12-14T17:40:01.222Z,35.72
2022-12-14T17:45:03.306Z,33.67
2022-12-14T17:50:05.538Z,34.33
2022-12-14T17:55:07.502Z,40.28
2022-12-14T18:00:35.290Z,35.25
2022-12-14T18:05:38.510Z,34.97
2022-12-14T18:10:42.808Z,36.40
2022-12-14T18:15:50.907Z,36.40
2022-12-14T18:20:55.951Z,37.55
2022-12-14T18:25:59.640Z,38.08
2022-12-14T18:31:07.309Z,36.45
2022-12-14T18:36:11.751Z,36.88
2022-12-14T18:41:16.703Z,33.03
2022-12-14T18:46:18.702Z,35.00
2022-12-14T18:51:23.823Z,36.22
2022-12-14T18:56:28.006Z,36.90
2022-12-14T19:01:29.854Z,40.08
2022-12-14T19:06:46.944Z,37.55
2022-12-14T19:11:48.705Z,34.80
2022-12-14T19:16:50.377Z,35.95
2022-12-14T19:21:54.787Z,41.35
2022-12-14T19:26:56.605Z,38.63
2022-12-14T19:32:04.867Z,39.87
2022-12-14T19:37:07.136Z,39.43
2022-12-14T19:42:08.860Z,38.97
2022-12-14T19:47:10.663Z,40.37
2022-12-14T19:52:12.598Z,40.57
2022-12-14T19:57:14.449Z,42.80
2022-12-14T20:02:16.827Z,40.70
2022-12-14T20:07:18.740Z,42.67
2022-12-14T20:12:20.496Z,38.30
2022-12-14T20:17:22.184Z,44.47
2022-12-14T20:22:23.902Z,40.03
2022-12-14T20:27:25.698Z,40.80
2022-12-14T20:32:27.553Z,43.77
2022-12-14T20:37:30.971Z,47.37
2022-12-14T20:42:32.758Z,44.60
2022-12-14T20:47:34.815Z,48.10
2022-12-14T20:52:36.580Z,41.57
2022-12-14T20:57:38.343Z,45.23
2022-12-14T21:02:40.237Z,49.17
2022-12-14T21:07:44.803Z,44.93
2022-12-14T21:12:48.892Z,41.83
2022-12-14T21:17:50.789Z,40.77
2022-12-14T21:22:52.463Z,42.97
2022-12-14T21:27:54.167Z,50.03
2022-12-14T21:32:55.896Z,44.67
2022-12-14T21:37:57.624Z,41.73
2022-12-14T21:42:59.384Z,45.43
2022-12-14T21:48:01.077Z,41.03
2022-12-14T21:53:02.841Z,43.07
2022-12-14T21:58:19.507Z,47.07
2022-12-14T22:03:21.323Z,49.27
2022-12-14T22:08:23.132Z,55.87
2022-12-14T22:13:24.999Z,44.93
2022-12-14T22:18:26.731Z,48.13
2022-12-14T22:23:31.248Z,53.07
2022-12-14T22:28:34.157Z,51.97
2022-12-14T22:33:36.164Z,43.23
2022-12-14T22:38:38.102Z,47.83
2022-12-14T22:43:40.577Z,46.47
2022-12-14T22:48:42.806Z,54.97
2022-12-14T22:53:44.547Z,47.30
2022-12-14T22:58:57.503Z,47.00
2022-12-14T23:03:59.453Z,50.80
2022-12-14T23:09:19.894Z,48.60
2022-12-14T23:14:40.382Z,48.83
2022-12-14T23:20:04.625Z,52.63
2022-12-14T23:25:25.788Z,57.13
2022-12-14T23:30:46.432Z,49.93
2022-12-14T23:36:06.654Z,46.23
2022-12-14T23:41:27.040Z,45.13
2022-12-14T23:46:47.899Z,49.73
2022-12-14T23:52:08.243Z,47.67
2022-12-14T23:57:28.870Z,56.10
